sensor_id;sensor_type;location;lat;lon;timestamp;temperature;humidity
21090;DHT22;10703;51.020;6.128;2023-04-25T00:02:24;5.00;99.90
21090;DHT22;10703;51.020;6.128;2023-04-25T00:04:51;5.00;99.90
21090;DHT22;10703;51.020;6.128;2023-04-25T00:07:19;4.90;99.90
21090;DHT22;10703;51.020;6.128;2023-04-25T00:09:45;5.00;99.90
21090;DHT22;10703;51.020;6.128;2023-04-25T00:12:12;5.00;99.90
21090;DHT22;10703;51.020;6.128;2023-04-25T00:14:38;5.00;99.90
21090;DHT22;10703;51.020;6.128;2023-04-25T00:17:05;5.00;99.90
21090;DHT22;10703;51.020;6.128;2023-04-25T00:19:32;5.00;99.90
21090;DHT22;10703;51.020;6.128;2023-04-25T00:21:58;5.00;99.90
21090;DHT22;10703;51.020;6.128;2023-04-25T00:24:25;5.10;99.90
21090;DHT22;10703;51.020;6.128;2023-04-25T00:26:52;5.00;99.90
21090;DHT22;10703;51.020;6.128;2023-04-25T00:29:18;5.00;99.90
21090;DHT22;10703;51.020;6.128;2023-04-25T00:31:45;5.00;99.90
21090;DHT22;10703;51.020;6.128;2023-04-25T00:34:11;4.90;99.90
21090;DHT22;10703;51.020;6.128;2023-04-25T00:36:38;4.90;99.90
21090;DHT22;10703;51.020;6.128;2023-04-25T00:39:04;4.90;99.90
21090;DHT22;10703;51.020;6.128;2023-04-25T00:41:31;4.80;99.90
21090;DHT22;10703;51.020;6.128;2023-04-25T00:43:59;4.80;99.90
21090;DHT22;10703;51.020;6.128;2023-04-25T00:46:27;4.70;99.90
21090;DHT22;10703;51.020;6.128;2023-04-25T00:48:53;4.70;99.90
21090;DHT22;10703;51.020;6.128;2023-04-25T00:51:20;4.60;99.90
21090;DHT22;10703;51.020;6.128;2023-04-25T00:53:49;4.50;99.90
21090;DHT22;10703;51.020;6.128;2023-04-25T00:56:17;4.50;99.90
21090;DHT22;10703;51.020;6.128;2023-04-25T00:58:44;4.40;99.90
21090;DHT22;10703;51.020;6.128;2023-04-25T01:01:11;4.40;99.90
21090;DHT22;10703;51.020;6.128;2023-04-25T01:03:39;4.30;99.90
21090;DHT22;10703;51.020;6.128;2023-04-25T01:06:10;4.30;99.90
21090;DHT22;10703;51.020;6.128;2023-04-25T01:08:40;4.30;99.90
21090;DHT22;10703;51.020;6.128;2023-04-25T01:11:06;4.30;99.90
21090;DHT22;10703;51.020;6.128;2023-04-25T01:13:33;4.20;99.90
21090;DHT22;10703;51.020;6.128;2023-04-25T01:16:01;4.20;99.90
21090;DHT22;10703;51.020;6.128;2023-04-25T01:18:28;4.20;99.90
21090;DHT22;10703;51.020;6.128;2023-04-25T01:20:55;4.30;99.90
21090;DHT22;10703;51.020;6.128;2023-04-25T01:23:22;4.30;99.90
21090;DHT22;10703;51.020;6.128;2023-04-25T01:25:50;4.40;99.90
21090;DHT22;10703;51.020;6.128;2023-04-25T01:28:17;4.50;99.90
21090;DHT22;10703;51.020;6.128;2023-04-25T01:30:44;4.60;99.90
21090;DHT22;10703;51.020;6.128;2023-04-25T01:33:11;4.70;99.90
21090;DHT22;10703;51.020;6.128;2023-04-25T01:35:39;4.80;99.90
21090;DHT22;10703;51.020;6.128;2023-04-25T01:38:06;4.90;99.90
21090;DHT22;10703;51.020;6.128;2023-04-25T01:40:33;4.90;99.90
21090;DHT22;10703;51.020;6.128;2023-04-25T01:43:00;4.90;99.90
21090;DHT22;10703;51.020;6.128;2023-04-25T01:45:27;5.00;99.90
21090;DHT22;10703;51.020;6.128;2023-04-25T01:47:53;5.10;99.90
21090;DHT22;10703;51.020;6.128;2023-04-25T01:50:22;5.00;99.90
21090;DHT22;10703;51.020;6.128;2023-04-25T01:52:49;5.10;99.90
21090;DHT22;10703;51.020;6.128;2023-04-25T01:55:15;5.10;99.90
21090;DHT22;10703;51.020;6.128;2023-04-25T01:57:42;5.20;99.90
21090;DHT22;10703;51.020;6.128;2023-04-25T02:00:09;5.30;99.90
21090;DHT22;10703;51.020;6.128;2023-04-25T02:02:36;5.30;99.90
21090;DHT22;10703;51.020;6.128;2023-04-25T02:05:03;5.30;99.90
21090;DHT22;10703;51.020;6.128;2023-04-25T02:07:32;5.30;99.90
21090;DHT22;10703;51.020;6.128;2023-04-25T02:09:58;5.30;99.90
21090;DHT22;10703;51.020;6.128;2023-04-25T02:12:26;5.20;99.90
21090;DHT22;10703;51.020;6.128;2023-04-25T02:14:53;5.30;99.90
21090;DHT22;10703;51.020;6.128;2023-04-25T02:17:20;5.30;99.90
21090;DHT22;10703;51.020;6.128;2023-04-25T02:19:47;5.30;99.90
21090;DHT22;10703;51.020;6.128;2023-04-25T02:22:14;5.30;99.90
21090;DHT22;10703;51.020;6.128;2023-04-25T02:24:41;5.30;99.90
21090;DHT22;10703;51.020;6.128;2023-04-25T02:27:07;5.30;99.90
21090;DHT22;10703;51.020;6.128;2023-04-25T02:29:34;5.20;99.90
21090;DHT22;10703;51.020;6.128;2023-04-25T02:32:01;5.30;99.90
21090;DHT22;10703;51.020;6.128;2023-04-25T02:34:28;5.20;99.90
21090;DHT22;10703;51.020;6.128;2023-04-25T02:36:54;5.30;99.90
21090;DHT22;10703;51.020;6.128;2023-04-25T02:39:21;5.30;99.90
21090;DHT22;10703;51.020;6.128;2023-04-25T02:41:48;5.30;99.90
21090;DHT22;10703;51.020;6.128;2023-04-25T02:44:15;5.20;99.90
21090;DHT22;10703;51.020;6.128;2023-04-25T02:46:41;5.20;99.90
21090;DHT22;10703;51.020;6.128;2023-04-25T02:49:08;5.20;99.90
21090;DHT22;10703;51.020;6.128;2023-04-25T02:51:35;5.20;99.90
21090;DHT22;10703;51.020;6.128;2023-04-25T02:54:01;5.20;99.90
21090;DHT22;10703;51.020;6.128;2023-04-25T02:56:28;5.30;99.90
21090;DHT22;10703;51.020;6.128;2023-04-25T02:58:55;5.20;99.90
21090;DHT22;10703;51.020;6.128;2023-04-25T03:01:21;5.30;99.90
21090;DHT22;10703;51.020;6.128;2023-04-25T03:03:48;5.30;99.90
21090;DHT22;10703;51.020;6.128;2023-04-25T03:06:15;5.40;99.90
21090;DHT22;10703;51.020;6.128;2023-04-25T03:08:42;5.40;99.90
21090;DHT22;10703;51.020;6.128;2023-04-25T03:11:09;5.40;99.90
21090;DHT22;10703;51.020;6.128;2023-04-25T03:13:37;5.30;99.90
21090;DHT22;10703;51.020;6.128;2023-04-25T03:16:03;5.30;99.90
21090;DHT22;10703;51.020;6.128;2023-04-25T03:18:30;5.30;99.90
21090;DHT22;10703;51.020;6.128;2023-04-25T03:20:57;5.30;99.90
21090;DHT22;10703;51.020;6.128;2023-04-25T03:23:23;5.30;99.90
21090;DHT22;10703;51.020;6.128;2023-04-25T03:25:50;5.20;99.90
21090;DHT22;10703;51.020;6.128;2023-04-25T03:28:17;5.20;99.90
21090;DHT22;10703;51.020;6.128;2023-04-25T03:30:44;5.20;99.90
21090;DHT22;10703;51.020;6.128;2023-04-25T03:33:11;5.20;99.90
21090;DHT22;10703;51.020;6.128;2023-04-25T03:35:37;5.20;99.90
21090;DHT22;10703;51.020;6.128;2023-04-25T03:38:04;5.10;99.90
21090;DHT22;10703;51.020;6.128;2023-04-25T03:40:30;5.20;99.90
21090;DHT22;10703;51.020;6.128;2023-04-25T03:42:57;5.20;99.90
21090;DHT22;10703;51.020;6.128;2023-04-25T03:45:24;5.20;99.90
21090;DHT22;10703;51.020;6.128;2023-04-25T03:47:51;5.20;99.90
21090;DHT22;10703;51.020;6.128;2023-04-25T03:50:17;5.20;99.90
21090;DHT22;10703;51.020;6.128;2023-04-25T03:52:44;5.20;99.90
21090;DHT22;10703;51.020;6.128;2023-04-25T03:55:10;5.10;99.90
21090;DHT22;10703;51.020;6.128;2023-04-25T03:57:37;5.10;99.90
21090;DHT22;10703;51.020;6.128;2023-04-25T04:00:04;5.20;99.90
21090;DHT22;10703;51.020;6.128;2023-04-25T04:02:31;5.20;99.90
21090;DHT22;10703;51.020;6.128;2023-04-25T04:04:59;5.20;99.90
21090;DHT22;10703;51.020;6.128;2023-04-25T04:07:26;5.20;99.90
21090;DHT22;10703;51.020;6.128;2023-04-25T04:09:53;5.20;99.90
21090;DHT22;10703;51.020;6.128;2023-04-25T04:12:19;5.20;99.90
21090;DHT22;10703;51.020;6.128;2023-04-25T04:14:46;5.20;99.90
21090;DHT22;10703;51.020;6.128;2023-04-25T04:17:12;5.20;99.90
21090;DHT22;10703;51.020;6.128;2023-04-25T04:19:39;5.30;99.90
21090;DHT22;10703;51.020;6.128;2023-04-25T04:22:05;5.30;99.90
21090;DHT22;10703;51.020;6.128;2023-04-25T04:24:32;5.40;99.90
21090;DHT22;10703;51.020;6.128;2023-04-25T04:26:59;5.40;99.90
21090;DHT22;10703;51.020;6.128;2023-04-25T04:29:25;5.40;99.90
21090;DHT22;10703;51.020;6.128;2023-04-25T04:31:52;5.40;99.90
21090;DHT22;10703;51.020;6.128;2023-04-25T04:34:19;5.40;99.90
21090;DHT22;10703;51.020;6.128;2023-04-25T04:36:46;5.40;99.90
21090;DHT22;10703;51.020;6.128;2023-04-25T04:39:13;5.50;99.90
21090;DHT22;10703;51.020;6.128;2023-04-25T04:41:40;5.50;99.90
21090;DHT22;10703;51.020;6.128;2023-04-25T04:44:07;5.50;99.90
21090;DHT22;10703;51.020;6.128;2023-04-25T04:46:35;5.40;99.90
21090;DHT22;10703;51.020;6.128;2023-04-25T04:49:12;5.40;99.90
21090;DHT22;10703;51.020;6.128;2023-04-25T04:51:40;5.40;99.90
21090;DHT22;10703;51.020;6.128;2023-04-25T04:54:07;5.40;99.90
21090;DHT22;10703;51.020;6.128;2023-04-25T04:56:34;5.40;99.90
21090;DHT22;10703;51.020;6.128;2023-04-25T04:59:01;5.40;99.90
21090;DHT22;10703;51.020;6.128;2023-04-25T05:01:29;5.40;99.90
21090;DHT22;10703;51.020;6.128;2023-04-25T05:03:57;5.40;99.90
21090;DHT22;10703;51.020;6.128;2023-04-25T05:06:27;5.50;99.90
21090;DHT22;10703;51.020;6.128;2023-04-25T05:08:56;5.50;99.90
21090;DHT22;10703;51.020;6.128;2023-04-25T05:11:23;5.60;99.90
21090;DHT22;10703;51.020;6.128;2023-04-25T05:13:52;5.60;99.90
21090;DHT22;10703;51.020;6.128;2023-04-25T05:16:19;5.70;99.90
21090;DHT22;10703;51.020;6.128;2023-04-25T05:18:47;5.80;99.90
21090;DHT22;10703;51.020;6.128;2023-04-25T05:21:13;5.80;99.90
21090;DHT22;10703;51.020;6.128;2023-04-25T05:23:40;5.90;99.90
21090;DHT22;10703;51.020;6.128;2023-04-25T05:26:06;6.00;99.90
21090;DHT22;10703;51.020;6.128;2023-04-25T05:28:40;6.00;99.90
21090;DHT22;10703;51.020;6.128;2023-04-25T05:31:09;6.10;99.90
21090;DHT22;10703;51.020;6.128;2023-04-25T05:33:36;6.10;99.90
21090;DHT22;10703;51.020;6.128;2023-04-25T05:36:03;6.20;99.90
21090;DHT22;10703;51.020;6.128;2023-04-25T05:38:30;6.20;99.90
21090;DHT22;10703;51.020;6.128;2023-04-25T05:41:00;6.30;99.90
21090;DHT22;10703;51.020;6.128;2023-04-25T05:43:26;6.40;99.90
21090;DHT22;10703;51.020;6.128;2023-04-25T05:45:53;6.40;99.90
21090;DHT22;10703;51.020;6.128;2023-04-25T05:48:20;6.50;99.90
21090;DHT22;10703;51.020;6.128;2023-04-25T05:50:47;6.50;99.90
21090;DHT22;10703;51.020;6.128;2023-04-25T05:53:13;6.50;99.90
21090;DHT22;10703;51.020;6.128;2023-04-25T05:55:40;6.60;99.90
21090;DHT22;10703;51.020;6.128;2023-04-25T05:58:06;6.60;99.90
21090;DHT22;10703;51.020;6.128;2023-04-25T06:00:33;6.70;99.90
21090;DHT22;10703;51.020;6.128;2023-04-25T06:03:00;6.80;99.90
21090;DHT22;10703;51.020;6.128;2023-04-25T06:05:28;6.80;99.90
21090;DHT22;10703;51.020;6.128;2023-04-25T06:07:55;6.80;99.90
21090;DHT22;10703;51.020;6.128;2023-04-25T06:10:21;6.80;99.90
21090;DHT22;10703;51.020;6.128;2023-04-25T06:12:49;7.00;99.90
21090;DHT22;10703;51.020;6.128;2023-04-25T06:15:15;7.10;99.90
21090;DHT22;10703;51.020;6.128;2023-04-25T06:17:54;7.30;99.90
21090;DHT22;10703;51.020;6.128;2023-04-25T06:20:21;7.30;99.90
21090;DHT22;10703;51.020;6.128;2023-04-25T06:22:50;7.40;99.90
21090;DHT22;10703;51.020;6.128;2023-04-25T06:25:17;7.50;99.90
21090;DHT22;10703;51.020;6.128;2023-04-25T06:27:44;7.80;99.90
21090;DHT22;10703;51.020;6.128;2023-04-25T06:30:11;7.80;99.90
21090;DHT22;10703;51.020;6.128;2023-04-25T06:32:38;8.10;99.90
21090;DHT22;10703;51.020;6.128;2023-04-25T06:35:05;8.20;99.90
21090;DHT22;10703;51.020;6.128;2023-04-25T06:37:32;8.30;99.90
21090;DHT22;10703;51.020;6.128;2023-04-25T06:39:59;8.30;99.90
21090;DHT22;10703;51.020;6.128;2023-04-25T06:42:25;8.20;99.90
21090;DHT22;10703;51.020;6.128;2023-04-25T06:44:52;8.20;99.90
21090;DHT22;10703;51.020;6.128;2023-04-25T06:47:18;8.20;99.90
21090;DHT22;10703;51.020;6.128;2023-04-25T06:49:45;8.10;99.90
21090;DHT22;10703;51.020;6.128;2023-04-25T06:52:12;8.20;99.90
21090;DHT22;10703;51.020;6.128;2023-04-25T06:54:38;8.20;99.90
21090;DHT22;10703;51.020;6.128;2023-04-25T06:57:05;8.30;99.90
21090;DHT22;10703;51.020;6.128;2023-04-25T06:59:31;8.40;99.90
21090;DHT22;10703;51.020;6.128;2023-04-25T07:01:59;8.60;99.90
21090;DHT22;10703;51.020;6.128;2023-04-25T07:04:25;8.70;99.90
21090;DHT22;10703;51.020;6.128;2023-04-25T07:06:52;8.80;99.90
21090;DHT22;10703;51.020;6.128;2023-04-25T07:09:19;8.90;99.90
21090;DHT22;10703;51.020;6.128;2023-04-25T07:11:46;9.00;99.90
21090;DHT22;10703;51.020;6.128;2023-04-25T07:14:12;9.10;99.90
21090;DHT22;10703;51.020;6.128;2023-04-25T07:16:39;9.40;99.90
21090;DHT22;10703;51.020;6.128;2023-04-25T07:19:06;9.30;99.90
21090;DHT22;10703;51.020;6.128;2023-04-25T07:21:32;9.30;99.90
21090;DHT22;10703;51.020;6.128;2023-04-25T07:23:59;9.20;99.90
21090;DHT22;10703;51.020;6.128;2023-04-25T07:26:26;9.50;99.90
21090;DHT22;10703;51.020;6.128;2023-04-25T07:28:52;9.70;99.90
21090;DHT22;10703;51.020;6.128;2023-04-25T07:31:22;9.70;99.90
21090;DHT22;10703;51.020;6.128;2023-04-25T07:33:49;9.60;99.90
21090;DHT22;10703;51.020;6.128;2023-04-25T07:36:15;9.70;99.90
21090;DHT22;10703;51.020;6.128;2023-04-25T07:38:42;9.70;99.90
21090;DHT22;10703;51.020;6.128;2023-04-25T07:41:09;10.00;99.90
21090;DHT22;10703;51.020;6.128;2023-04-25T07:43:35;10.10;99.90
21090;DHT22;10703;51.020;6.128;2023-04-25T07:46:02;9.90;99.90
21090;DHT22;10703;51.020;6.128;2023-04-25T07:48:29;9.80;99.90
21090;DHT22;10703;51.020;6.128;2023-04-25T07:50:56;9.70;99.90
21090;DHT22;10703;51.020;6.128;2023-04-25T07:53:22;9.60;99.90
21090;DHT22;10703;51.020;6.128;2023-04-25T07:55:50;9.70;99.90
21090;DHT22;10703;51.020;6.128;2023-04-25T07:58:17;9.80;99.90
21090;DHT22;10703;51.020;6.128;2023-04-25T08:00:48;9.70;99.90
21090;DHT22;10703;51.020;6.128;2023-04-25T08:03:14;9.70;99.90
21090;DHT22;10703;51.020;6.128;2023-04-25T08:05:41;9.80;99.90
21090;DHT22;10703;51.020;6.128;2023-04-25T08:08:08;9.70;99.90
21090;DHT22;10703;51.020;6.128;2023-04-25T08:10:35;9.80;99.90
21090;DHT22;10703;51.020;6.128;2023-04-25T08:13:01;9.90;99.90
21090;DHT22;10703;51.020;6.128;2023-04-25T08:15:29;10.10;99.90
21090;DHT22;10703;51.020;6.128;2023-04-25T08:17:56;10.20;99.90
21090;DHT22;10703;51.020;6.128;2023-04-25T08:20:22;10.50;99.90
21090;DHT22;10703;51.020;6.128;2023-04-25T08:22:49;10.60;99.90
21090;DHT22;10703;51.020;6.128;2023-04-25T08:25:16;10.70;99.90
21090;DHT22;10703;51.020;6.128;2023-04-25T08:27:43;10.90;99.90
21090;DHT22;10703;51.020;6.128;2023-04-25T08:30:09;10.90;99.90
21090;DHT22;10703;51.020;6.128;2023-04-25T08:32:36;11.00;99.90
21090;DHT22;10703;51.020;6.128;2023-04-25T08:35:05;11.10;99.90
21090;DHT22;10703;51.020;6.128;2023-04-25T08:37:32;11.00;99.90
21090;DHT22;10703;51.020;6.128;2023-04-25T08:39:59;11.10;99.90
21090;DHT22;10703;51.020;6.128;2023-04-25T08:42:27;11.00;99.90
21090;DHT22;10703;51.020;6.128;2023-04-25T08:44:53;11.10;99.90
21090;DHT22;10703;51.020;6.128;2023-04-25T08:47:22;11.30;99.90
21090;DHT22;10703;51.020;6.128;2023-04-25T08:49:49;11.40;99.90
21090;DHT22;10703;51.020;6.128;2023-04-25T08:52:22;11.50;99.90
21090;DHT22;10703;51.020;6.128;2023-04-25T08:54:49;11.20;99.90
21090;DHT22;10703;51.020;6.128;2023-04-25T08:57:18;11.00;99.90
21090;DHT22;10703;51.020;6.128;2023-04-25T08:59:46;11.30;99.90
21090;DHT22;10703;51.020;6.128;2023-04-25T09:02:13;11.30;99.90
21090;DHT22;10703;51.020;6.128;2023-04-25T09:04:43;11.30;99.90
21090;DHT22;10703;51.020;6.128;2023-04-25T09:07:10;11.40;99.90
21090;DHT22;10703;51.020;6.128;2023-04-25T09:09:37;11.60;99.90
21090;DHT22;10703;51.020;6.128;2023-04-25T09:12:05;11.80;99.90
21090;DHT22;10703;51.020;6.128;2023-04-25T09:14:31;12.00;99.90
21090;DHT22;10703;51.020;6.128;2023-04-25T09:17:00;12.10;99.90
21090;DHT22;10703;51.020;6.128;2023-04-25T09:19:32;12.10;99.90
21090;DHT22;10703;51.020;6.128;2023-04-25T09:22:03;11.90;99.90
21090;DHT22;10703;51.020;6.128;2023-04-25T09:24:34;12.20;99.90
21090;DHT22;10703;51.020;6.128;2023-04-25T09:27:08;11.70;99.90
21090;DHT22;10703;51.020;6.128;2023-04-25T09:29:37;11.90;99.90
21090;DHT22;10703;51.020;6.128;2023-04-25T09:32:18;12.40;99.90
21090;DHT22;10703;51.020;6.128;2023-04-25T09:34:47;13.00;99.90
21090;DHT22;10703;51.020;6.128;2023-04-25T09:37:28;13.50;99.20
21090;DHT22;10703;51.020;6.128;2023-04-25T09:39:56;13.80;98.40
21090;DHT22;10703;51.020;6.128;2023-04-25T09:42:24;14.10;97.30
21090;DHT22;10703;51.020;6.128;2023-04-25T09:44:53;14.10;98.00
21090;DHT22;10703;51.020;6.128;2023-04-25T09:47:20;13.80;99.80
21090;DHT22;10703;51.020;6.128;2023-04-25T09:49:49;13.20;98.00
21090;DHT22;10703;51.020;6.128;2023-04-25T09:52:21;13.20;99.50
21090;DHT22;10703;51.020;6.128;2023-04-25T09:54:51;12.80;99.90
21090;DHT22;10703;51.020;6.128;2023-04-25T09:57:20;12.90;99.90
21090;DHT22;10703;51.020;6.128;2023-04-25T09:59:55;12.80;99.40
21090;DHT22;10703;51.020;6.128;2023-04-25T10:02:24;12.60;99.30
21090;DHT22;10703;51.020;6.128;2023-04-25T10:04:55;12.60;99.30
21090;DHT22;10703;51.020;6.128;2023-04-25T10:07:27;12.20;98.60
21090;DHT22;10703;51.020;6.128;2023-04-25T10:10:02;11.90;99.50
21090;DHT22;10703;51.020;6.128;2023-04-25T10:12:31;12.40;99.20
21090;DHT22;10703;51.020;6.128;2023-04-25T10:14:59;13.10;99.80
21090;DHT22;10703;51.020;6.128;2023-04-25T10:17:27;13.50;98.00
21090;DHT22;10703;51.020;6.128;2023-04-25T10:19:54;13.40;97.40
21090;DHT22;10703;51.020;6.128;2023-04-25T10:22:37;13.40;98.20
21090;DHT22;10703;51.020;6.128;2023-04-25T10:25:04;13.60;98.40
21090;DHT22;10703;51.020;6.128;2023-04-25T10:27:32;13.80;98.30
21090;DHT22;10703;51.020;6.128;2023-04-25T10:30:10;14.00;98.40
21090;DHT22;10703;51.020;6.128;2023-04-25T10:32:38;13.70;96.80
21090;DHT22;10703;51.020;6.128;2023-04-25T10:35:19;13.40;98.20
21090;DHT22;10703;51.020;6.128;2023-04-25T10:38:09;13.70;99.10
21090;DHT22;10703;51.020;6.128;2023-04-25T10:40:36;13.70;97.50
21090;DHT22;10703;51.020;6.128;2023-04-25T10:45:59;12.90;97.90
21090;DHT22;10703;51.020;6.128;2023-04-25T10:48:28;13.50;98.80
21090;DHT22;10703;51.020;6.128;2023-04-25T10:51:11;13.50;99.90
21090;DHT22;10703;51.020;6.128;2023-04-25T10:53:38;13.60;99.50
21090;DHT22;10703;51.020;6.128;2023-04-25T10:56:18;13.70;98.80
21090;DHT22;10703;51.020;6.128;2023-04-25T10:58:46;13.60;96.30
21090;DHT22;10703;51.020;6.128;2023-04-25T11:01:24;13.30;94.80
21090;DHT22;10703;51.020;6.128;2023-04-25T11:03:57;13.50;95.60
21090;DHT22;10703;51.020;6.128;2023-04-25T11:06:44;13.40;97.30
21090;DHT22;10703;51.020;6.128;2023-04-25T11:09:13;13.30;98.20
21090;DHT22;10703;51.020;6.128;2023-04-25T11:11:40;14.30;96.90
21090;DHT22;10703;51.020;6.128;2023-04-25T11:14:07;15.10;95.20
21090;DHT22;10703;51.020;6.128;2023-04-25T11:16:33;15.50;95.90
21090;DHT22;10703;51.020;6.128;2023-04-25T11:19:00;15.60;95.10
21090;DHT22;10703;51.020;6.128;2023-04-25T11:21:26;16.20;95.10
21090;DHT22;10703;51.020;6.128;2023-04-25T11:23:56;16.70;94.30
21090;DHT22;10703;51.020;6.128;2023-04-25T11:26:24;16.50;93.10
21090;DHT22;10703;51.020;6.128;2023-04-25T11:28:51;16.10;92.70
21090;DHT22;10703;51.020;6.128;2023-04-25T11:31:20;15.90;93.10
21090;DHT22;10703;51.020;6.128;2023-04-25T11:33:47;16.00;92.40
21090;DHT22;10703;51.020;6.128;2023-04-25T11:36:14;16.20;93.20
21090;DHT22;10703;51.020;6.128;2023-04-25T11:38:41;16.60;93.20
21090;DHT22;10703;51.020;6.128;2023-04-25T11:41:08;17.20;91.90
21090;DHT22;10703;51.020;6.128;2023-04-25T11:43:35;17.40;91.00
21090;DHT22;10703;51.020;6.128;2023-04-25T11:46:06;17.80;88.90
21090;DHT22;10703;51.020;6.128;2023-04-25T11:48:41;17.20;92.50
21090;DHT22;10703;51.020;6.128;2023-04-25T11:51:08;15.90;91.50
21090;DHT22;10703;51.020;6.128;2023-04-25T11:53:35;15.20;93.20
21090;DHT22;10703;51.020;6.128;2023-04-25T11:56:09;14.70;92.10
21090;DHT22;10703;51.020;6.128;2023-04-25T11:58:59;14.30;92.20
21090;DHT22;10703;51.020;6.128;2023-04-25T12:01:37;13.70;92.90
21090;DHT22;10703;51.020;6.128;2023-04-25T12:04:36;13.40;94.60
21090;DHT22;10703;51.020;6.128;2023-04-25T12:07:04;13.00;97.20
21090;DHT22;10703;51.020;6.128;2023-04-25T12:09:36;12.40;98.10
21090;DHT22;10703;51.020;6.128;2023-04-25T12:12:02;12.40;99.00
21090;DHT22;10703;51.020;6.128;2023-04-25T12:14:32;12.60;99.90
21090;DHT22;10703;51.020;6.128;2023-04-25T12:17:00;12.50;99.30
21090;DHT22;10703;51.020;6.128;2023-04-25T12:19:33;13.00;99.90
21090;DHT22;10703;51.020;6.128;2023-04-25T12:22:01;13.70;98.70
21090;DHT22;10703;51.020;6.128;2023-04-25T12:24:29;13.90;97.40
21090;DHT22;10703;51.020;6.128;2023-04-25T12:29:29;14.10;96.80
21090;DHT22;10703;51.020;6.128;2023-04-25T12:32:07;14.30;96.60
21090;DHT22;10703;51.020;6.128;2023-04-25T12:34:34;14.70;96.40
21090;DHT22;10703;51.020;6.128;2023-04-25T12:37:02;14.60;96.80
21090;DHT22;10703;51.020;6.128;2023-04-25T12:39:28;15.10;96.90
21090;DHT22;10703;51.020;6.128;2023-04-25T12:41:55;16.30;95.00
21090;DHT22;10703;51.020;6.128;2023-04-25T12:44:21;17.10;92.90
21090;DHT22;10703;51.020;6.128;2023-04-25T12:46:48;18.00;92.20
21090;DHT22;10703;51.020;6.128;2023-04-25T12:49:15;17.50;90.60
21090;DHT22;10703;51.020;6.128;2023-04-25T12:51:45;17.20;92.20
21090;DHT22;10703;51.020;6.128;2023-04-25T12:54:12;16.30;91.40
21090;DHT22;10703;51.020;6.128;2023-04-25T12:56:38;15.30;92.30
21090;DHT22;10703;51.020;6.128;2023-04-25T12:59:05;14.10;92.20
21090;DHT22;10703;51.020;6.128;2023-04-25T13:01:31;13.70;93.60
21090;DHT22;10703;51.020;6.128;2023-04-25T13:04:01;13.20;95.60
21090;DHT22;10703;51.020;6.128;2023-04-25T13:06:28;13.00;95.70
21090;DHT22;10703;51.020;6.128;2023-04-25T13:08:56;12.70;96.10
21090;DHT22;10703;51.020;6.128;2023-04-25T13:11:23;12.10;97.80
21090;DHT22;10703;51.020;6.128;2023-04-25T13:13:49;11.80;97.80
21090;DHT22;10703;51.020;6.128;2023-04-25T13:16:16;11.50;97.60
21090;DHT22;10703;51.020;6.128;2023-04-25T13:18:43;11.20;97.90
21090;DHT22;10703;51.020;6.128;2023-04-25T13:21:10;10.90;98.30
21090;DHT22;10703;51.020;6.128;2023-04-25T13:23:38;10.90;98.10
21090;DHT22;10703;51.020;6.128;2023-04-25T13:26:05;11.10;99.90
21090;DHT22;10703;51.020;6.128;2023-04-25T13:28:31;11.10;98.50
21090;DHT22;10703;51.020;6.128;2023-04-25T13:30:58;11.10;99.80
21090;DHT22;10703;51.020;6.128;2023-04-25T13:33:25;11.30;99.30
21090;DHT22;10703;51.020;6.128;2023-04-25T13:35:52;11.40;99.90
21090;DHT22;10703;51.020;6.128;2023-04-25T13:38:23;11.20;99.90
21090;DHT22;10703;51.020;6.128;2023-04-25T13:40:51;11.20;99.90
21090;DHT22;10703;51.020;6.128;2023-04-25T13:43:21;11.40;99.90
21090;DHT22;10703;51.020;6.128;2023-04-25T13:45:51;11.80;99.90
21090;DHT22;10703;51.020;6.128;2023-04-25T13:48:18;12.10;99.00
21090;DHT22;10703;51.020;6.128;2023-04-25T13:50:45;12.60;99.00
21090;DHT22;10703;51.020;6.128;2023-04-25T13:53:12;13.40;96.80
21090;DHT22;10703;51.020;6.128;2023-04-25T13:55:39;14.90;95.20
21090;DHT22;10703;51.020;6.128;2023-04-25T13:58:06;14.60;95.60
21090;DHT22;10703;51.020;6.128;2023-04-25T14:00:37;14.40;94.90
21090;DHT22;10703;51.020;6.128;2023-04-25T14:03:05;14.20;95.20
21090;DHT22;10703;51.020;6.128;2023-04-25T14:05:34;14.20;95.40
21090;DHT22;10703;51.020;6.128;2023-04-25T14:08:08;14.10;95.20
21090;DHT22;10703;51.020;6.128;2023-04-25T14:10:36;14.40;96.70
21090;DHT22;10703;51.020;6.128;2023-04-25T14:13:04;15.00;94.30
21090;DHT22;10703;51.020;6.128;2023-04-25T14:15:31;16.00;94.00
21090;DHT22;10703;51.020;6.128;2023-04-25T14:17:59;17.00;91.60
21090;DHT22;10703;51.020;6.128;2023-04-25T14:20:27;18.10;91.30
21090;DHT22;10703;51.020;6.128;2023-04-25T14:22:53;18.80;90.30
21090;DHT22;10703;51.020;6.128;2023-04-25T14:25:23;18.50;90.10
21090;DHT22;10703;51.020;6.128;2023-04-25T14:27:49;18.70;90.40
21090;DHT22;10703;51.020;6.128;2023-04-25T14:30:17;18.80;87.50
21090;DHT22;10703;51.020;6.128;2023-04-25T14:32:44;18.90;89.20
21090;DHT22;10703;51.020;6.128;2023-04-25T14:35:12;19.00;88.30
21090;DHT22;10703;51.020;6.128;2023-04-25T14:37:38;19.70;88.70
21090;DHT22;10703;51.020;6.128;2023-04-25T14:40:06;20.00;85.20
21090;DHT22;10703;51.020;6.128;2023-04-25T14:42:35;19.30;84.50
21090;DHT22;10703;51.020;6.128;2023-04-25T14:45:03;18.00;86.20
21090;DHT22;10703;51.020;6.128;2023-04-25T14:47:30;17.40;88.30
21090;DHT22;10703;51.020;6.128;2023-04-25T14:49:56;17.30;89.00
21090;DHT22;10703;51.020;6.128;2023-04-25T14:52:23;18.20;90.40
21090;DHT22;10703;51.020;6.128;2023-04-25T14:54:50;19.10;88.90
21090;DHT22;10703;51.020;6.128;2023-04-25T14:57:17;19.40;85.40
21090;DHT22;10703;51.020;6.128;2023-04-25T14:59:43;19.30;87.80
21090;DHT22;10703;51.020;6.128;2023-04-25T15:02:10;18.30;86.90
21090;DHT22;10703;51.020;6.128;2023-04-25T15:04:37;17.50;88.40
21090;DHT22;10703;51.020;6.128;2023-04-25T15:07:03;16.10;90.30
21090;DHT22;10703;51.020;6.128;2023-04-25T15:09:30;15.40;90.70
21090;DHT22;10703;51.020;6.128;2023-04-25T15:11:57;14.60;91.20
21090;DHT22;10703;51.020;6.128;2023-04-25T15:14:24;13.40;92.00
21090;DHT22;10703;51.020;6.128;2023-04-25T15:16:51;13.00;93.40
21090;DHT22;10703;51.020;6.128;2023-04-25T15:19:17;12.50;93.50
21090;DHT22;10703;51.020;6.128;2023-04-25T15:21:44;12.10;93.70
21090;DHT22;10703;51.020;6.128;2023-04-25T15:24:10;12.00;93.40
21090;DHT22;10703;51.020;6.128;2023-04-25T15:26:37;11.80;94.40
21090;DHT22;10703;51.020;6.128;2023-04-25T15:29:04;11.70;96.40
21090;DHT22;10703;51.020;6.128;2023-04-25T15:31:32;11.70;98.60
21090;DHT22;10703;51.020;6.128;2023-04-25T15:33:59;11.70;97.00
21090;DHT22;10703;51.020;6.128;2023-04-25T15:36:25;11.80;99.00
21090;DHT22;10703;51.020;6.128;2023-04-25T15:38:52;11.90;96.00
21090;DHT22;10703;51.020;6.128;2023-04-25T15:41:18;12.10;95.70
21090;DHT22;10703;51.020;6.128;2023-04-25T15:43:46;12.70;95.30
21090;DHT22;10703;51.020;6.128;2023-04-25T15:46:14;12.90;94.90
21090;DHT22;10703;51.020;6.128;2023-04-25T15:48:41;13.50;93.70
21090;DHT22;10703;51.020;6.128;2023-04-25T15:51:08;14.30;93.30